sensor_id;sensor_type;location;lat;lon;timestamp;temperature;humidity
3976;DHT22;2002;48.812;9.180;2023-04-24T00:00:20;17.50;1.00
3976;DHT22;2002;48.812;9.180;2023-04-24T00:02:45;17.50;1.00
3976;DHT22;2002;48.812;9.180;2023-04-24T00:05:14;17.50;1.00
3976;DHT22;2002;48.812;9.180;2023-04-24T00:07:40;17.50;1.00
3976;DHT22;2002;48.812;9.180;2023-04-24T00:10:07;17.50;1.00
3976;DHT22;2002;48.812;9.180;2023-04-24T00:12:33;17.40;1.00
3976;DHT22;2002;48.812;9.180;2023-04-24T00:14:58;17.40;1.00
3976;DHT22;2002;48.812;9.180;2023-04-24T00:17:24;17.40;1.00
3976;DHT22;2002;48.812;9.180;2023-04-24T00:19:49;17.40;1.00
3976;DHT22;2002;48.812;9.180;2023-04-24T00:22:24;17.40;1.00
3976;DHT22;2002;48.812;9.180;2023-04-24T00:24:50;17.40;1.00
3976;DHT22;2002;48.812;9.180;2023-04-24T00:27:15;17.40;1.00
3976;DHT22;2002;48.812;9.180;2023-04-24T00:29:41;17.40;1.00
3976;DHT22;2002;48.812;9.180;2023-04-24T00:32:06;17.40;1.00
3976;DHT22;2002;48.812;9.180;2023-04-24T00:34:32;17.40;1.00
3976;DHT22;2002;48.812;9.180;2023-04-24T00:36:58;17.40;1.00
3976;DHT22;2002;48.812;9.180;2023-04-24T00:39:23;17.40;1.00
3976;DHT22;2002;48.812;9.180;2023-04-24T00:41:49;17.40;1.00
3976;DHT22;2002;48.812;9.180;2023-04-24T00:44:16;17.30;1.00
3976;DHT22;2002;48.812;9.180;2023-04-24T00:46:42;17.30;1.00
3976;DHT22;2002;48.812;9.180;2023-04-24T00:49:08;17.30;1.00
3976;DHT22;2002;48.812;9.180;2023-04-24T00:51:33;17.30;1.00
3976;DHT22;2002;48.812;9.180;2023-04-24T00:54:00;17.30;1.00
3976;DHT22;2002;48.812;9.180;2023-04-24T00:56:26;17.30;1.00
3976;DHT22;2002;48.812;9.180;2023-04-24T00:58:52;17.30;1.00
3976;DHT22;2002;48.812;9.180;2023-04-24T01:01:20;17.40;1.00
3976;DHT22;2002;48.812;9.180;2023-04-24T01:03:46;17.50;1.00
3976;DHT22;2002;48.812;9.180;2023-04-24T01:06:12;17.60;1.00
3976;DHT22;2002;48.812;9.180;2023-04-24T01:08:39;17.80;1.00
3976;DHT22;2002;48.812;9.180;2023-04-24T01:11:06;18.00;1.00
3976;DHT22;2002;48.812;9.180;2023-04-24T01:13:33;18.00;1.00
3976;DHT22;2002;48.812;9.180;2023-04-24T01:15:59;18.00;1.00
3976;DHT22;2002;48.812;9.180;2023-04-24T01:18:25;18.00;1.00
3976;DHT22;2002;48.812;9.180;2023-04-24T01:20:53;17.90;1.00
3976;DHT22;2002;48.812;9.180;2023-04-24T01:23:19;17.90;1.00
3976;DHT22;2002;48.812;9.180;2023-04-24T01:25:45;17.90;1.00
3976;DHT22;2002;48.812;9.180;2023-04-24T01:28:11;17.80;1.00
3976;DHT22;2002;48.812;9.180;2023-04-24T01:30:39;17.80;1.00
3976;DHT22;2002;48.812;9.180;2023-04-24T01:33:05;17.80;1.00
3976;DHT22;2002;48.812;9.180;2023-04-24T01:35:31;17.70;1.00
3976;DHT22;2002;48.812;9.180;2023-04-24T01:37:57;17.70;1.00
3976;DHT22;2002;48.812;9.180;2023-04-24T01:40:22;17.60;1.00
3976;DHT22;2002;48.812;9.180;2023-04-24T01:42:48;17.60;1.00
3976;DHT22;2002;48.812;9.180;2023-04-24T01:45:13;17.60;1.00
3976;DHT22;2002;48.812;9.180;2023-04-24T01:47:39;17.60;1.00
3976;DHT22;2002;48.812;9.180;2023-04-24T01:50:06;17.50;1.00
3976;DHT22;2002;48.812;9.180;2023-04-24T01:52:32;17.50;1.00
3976;DHT22;2002;48.812;9.180;2023-04-24T01:55:02;17.50;1.00
3976;DHT22;2002;48.812;9.180;2023-04-24T01:57:29;17.50;1.00
3976;DHT22;2002;48.812;9.180;2023-04-24T01:59:56;17.50;1.00
3976;DHT22;2002;48.812;9.180;2023-04-24T02:02:22;17.50;1.00
3976;DHT22;2002;48.812;9.180;2023-04-24T02:04:53;17.50;1.00
3976;DHT22;2002;48.812;9.180;2023-04-24T02:07:18;17.50;1.00
3976;DHT22;2002;48.812;9.180;2023-04-24T02:09:44;17.50;1.00
3976;DHT22;2002;48.812;9.180;2023-04-24T02:12:09;17.40;1.00
3976;DHT22;2002;48.812;9.180;2023-04-24T02:14:35;17.40;1.00
3976;DHT22;2002;48.812;9.180;2023-04-24T02:17:00;17.50;1.00
3976;DHT22;2002;48.812;9.180;2023-04-24T02:19:26;17.50;1.00
3976;DHT22;2002;48.812;9.180;2023-04-24T02:21:52;17.50;1.00
3976;DHT22;2002;48.812;9.180;2023-04-24T02:24:17;17.40;1.00
3976;DHT22;2002;48.812;9.180;2023-04-24T02:26:43;17.50;1.00
3976;DHT22;2002;48.812;9.180;2023-04-24T02:29:08;17.40;1.00
3976;DHT22;2002;48.812;9.180;2023-04-24T02:31:34;17.40;1.00
3976;DHT22;2002;48.812;9.180;2023-04-24T02:34:00;17.40;1.00
3976;DHT22;2002;48.812;9.180;2023-04-24T02:36:25;17.50;1.00
3976;DHT22;2002;48.812;9.180;2023-04-24T02:38:51;17.50;1.00
3976;DHT22;2002;48.812;9.180;2023-04-24T02:41:16;17.50;1.00
3976;DHT22;2002;48.812;9.180;2023-04-24T02:43:42;17.40;1.00
3976;DHT22;2002;48.812;9.180;2023-04-24T02:46:07;17.40;1.00
3976;DHT22;2002;48.812;9.180;2023-04-24T02:48:33;17.40;1.00
3976;DHT22;2002;48.812;9.180;2023-04-24T02:50:58;17.40;1.00
3976;DHT22;2002;48.812;9.180;2023-04-24T02:53:24;17.40;1.00
3976;DHT22;2002;48.812;9.180;2023-04-24T02:55:50;17.40;1.00
3976;DHT22;2002;48.812;9.180;2023-04-24T02:58:15;17.40;1.00
3976;DHT22;2002;48.812;9.180;2023-04-24T03:00:41;17.40;1.00
3976;DHT22;2002;48.812;9.180;2023-04-24T03:03:06;17.40;1.00
3976;DHT22;2002;48.812;9.180;2023-04-24T03:05:32;17.40;1.00
3976;DHT22;2002;48.812;9.180;2023-04-24T03:07:57;17.40;1.00
3976;DHT22;2002;48.812;9.180;2023-04-24T03:10:23;17.40;1.00
3976;DHT22;2002;48.812;9.180;2023-04-24T03:12:49;17.40;1.00
3976;DHT22;2002;48.812;9.180;2023-04-24T03:15:15;17.40;1.00
3976;DHT22;2002;48.812;9.180;2023-04-24T03:17:41;17.30;1.00
3976;DHT22;2002;48.812;9.180;2023-04-24T03:20:07;17.30;1.00
3976;DHT22;2002;48.812;9.180;2023-04-24T03:22:34;17.30;1.00
3976;DHT22;2002;48.812;9.180;2023-04-24T03:25:00;17.30;1.00
3976;DHT22;2002;48.812;9.180;2023-04-24T03:27:25;17.30;1.00
3976;DHT22;2002;48.812;9.180;2023-04-24T03:29:51;17.30;1.00
3976;DHT22;2002;48.812;9.180;2023-04-24T03:32:23;17.30;1.00
3976;DHT22;2002;48.812;9.180;2023-04-24T03:34:49;17.30;1.00
3976;DHT22;2002;48.812;9.180;2023-04-24T03:37:16;17.40;1.00
3976;DHT22;2002;48.812;9.180;2023-04-24T03:39:42;17.60;1.00
3976;DHT22;2002;48.812;9.180;2023-04-24T03:42:07;17.70;1.00
3976;DHT22;2002;48.812;9.180;2023-04-24T03:44:34;17.80;1.00
3976;DHT22;2002;48.812;9.180;2023-04-24T03:47:00;18.00;1.00
3976;DHT22;2002;48.812;9.180;2023-04-24T03:49:25;18.00;1.00
3976;DHT22;2002;48.812;9.180;2023-04-24T03:51:51;18.00;1.00
3976;DHT22;2002;48.812;9.180;2023-04-24T03:54:20;17.90;1.00
3976;DHT22;2002;48.812;9.180;2023-04-24T03:56:46;17.90;1.00
3976;DHT22;2002;48.812;9.180;2023-04-24T03:59:11;17.90;1.00
3976;DHT22;2002;48.812;9.180;2023-04-24T04:01:37;17.80;1.00
3976;DHT22;2002;48.812;9.180;2023-04-24T04:04:08;17.80;1.00
3976;DHT22;2002;48.812;9.180;2023-04-24T04:06:34;17.70;1.00
3976;DHT22;2002;48.812;9.180;2023-04-24T04:09:00;17.70;1.00
3976;DHT22;2002;48.812;9.180;2023-04-24T04:11:25;17.70;1.00
3976;DHT22;2002;48.812;9.180;2023-04-24T04:13:51;17.70;1.00
3976;DHT22;2002;48.812;9.180;2023-04-24T04:16:17;17.60;1.00
3976;DHT22;2002;48.812;9.180;2023-04-24T04:18:43;17.60;1.00
3976;DHT22;2002;48.812;9.180;2023-04-24T04:21:09;17.70;1.00
3976;DHT22;2002;48.812;9.180;2023-04-24T04:23:34;17.60;1.00
3976;DHT22;2002;48.812;9.180;2023-04-24T04:26:00;17.60;1.00
3976;DHT22;2002;48.812;9.180;2023-04-24T04:28:26;17.60;1.00
3976;DHT22;2002;48.812;9.180;2023-04-24T04:30:52;17.50;1.00
3976;DHT22;2002;48.812;9.180;2023-04-24T04:33:21;17.50;1.00
3976;DHT22;2002;48.812;9.180;2023-04-24T04:35:47;17.50;1.00
3976;DHT22;2002;48.812;9.180;2023-04-24T04:38:17;17.50;1.00
3976;DHT22;2002;48.812;9.180;2023-04-24T04:40:44;17.50;1.00
3976;DHT22;2002;48.812;9.180;2023-04-24T04:43:10;17.50;1.00
3976;DHT22;2002;48.812;9.180;2023-04-24T04:45:39;17.50;1.00
3976;DHT22;2002;48.812;9.180;2023-04-24T04:48:06;17.50;1.00
3976;DHT22;2002;48.812;9.180;2023-04-24T04:50:38;17.50;1.00
3976;DHT22;2002;48.812;9.180;2023-04-24T04:53:03;17.50;1.00
3976;DHT22;2002;48.812;9.180;2023-04-24T04:55:29;17.50;1.00
3976;DHT22;2002;48.812;9.180;2023-04-24T04:57:55;17.50;1.00
3976;DHT22;2002;48.812;9.180;2023-04-24T05:00:21;17.60;1.00
3976;DHT22;2002;48.812;9.180;2023-04-24T05:02:50;17.50;1.00
3976;DHT22;2002;48.812;9.180;2023-04-24T05:05:16;17.60;1.00
3976;DHT22;2002;48.812;9.180;2023-04-24T05:07:43;17.60;1.00
3976;DHT22;2002;48.812;9.180;2023-04-24T05:10:09;17.60;1.00
3976;DHT22;2002;48.812;9.180;2023-04-24T05:12:34;17.60;1.00
3976;DHT22;2002;48.812;9.180;2023-04-24T05:15:00;17.60;1.00
3976;DHT22;2002;48.812;9.180;2023-04-24T05:17:26;17.60;1.00
3976;DHT22;2002;48.812;9.180;2023-04-24T05:19:51;17.50;1.00
3976;DHT22;2002;48.812;9.180;2023-04-24T05:22:17;17.60;1.00
3976;DHT22;2002;48.812;9.180;2023-04-24T05:24:45;17.50;1.00
3976;DHT22;2002;48.812;9.180;2023-04-24T05:27:10;17.50;1.00
3976;DHT22;2002;48.812;9.180;2023-04-24T05:29:36;17.50;1.00
3976;DHT22;2002;48.812;9.180;2023-04-24T05:32:02;17.50;1.00
3976;DHT22;2002;48.812;9.180;2023-04-24T05:34:27;17.50;1.00
3976;DHT22;2002;48.812;9.180;2023-04-24T05:36:53;17.50;1.00
3976;DHT22;2002;48.812;9.180;2023-04-24T05:39:18;17.50;1.00
3976;DHT22;2002;48.812;9.180;2023-04-24T05:41:45;17.50;1.00
3976;DHT22;2002;48.812;9.180;2023-04-24T05:44:10;17.50;1.00
3976;DHT22;2002;48.812;9.180;2023-04-24T05:46:36;17.50;1.00
3976;DHT22;2002;48.812;9.180;2023-04-24T05:49:02;17.50;1.00
3976;DHT22;2002;48.812;9.180;2023-04-24T05:51:28;17.60;1.00
3976;DHT22;2002;48.812;9.180;2023-04-24T05:53:54;17.50;1.00
3976;DHT22;2002;48.812;9.180;2023-04-24T05:56:19;17.50;1.00
3976;DHT22;2002;48.812;9.180;2023-04-24T05:58:46;17.50;1.00
3976;DHT22;2002;48.812;9.180;2023-04-24T06:01:12;17.50;1.00
3976;DHT22;2002;48.812;9.180;2023-04-24T06:03:38;17.50;1.00
3976;DHT22;2002;48.812;9.180;2023-04-24T06:06:05;17.50;1.00
3976;DHT22;2002;48.812;9.180;2023-04-24T06:08:31;17.50;1.00
3976;DHT22;2002;48.812;9.180;2023-04-24T06:10:58;17.60;1.00
3976;DHT22;2002;48.812;9.180;2023-04-24T06:13:23;17.60;1.00
3976;DHT22;2002;48.812;9.180;2023-04-24T06:15:49;17.80;1.00
3976;DHT22;2002;48.812;9.180;2023-04-24T06:18:14;17.90;1.00
3976;DHT22;2002;48.812;9.180;2023-04-24T06:20:40;17.90;1.00
3976;DHT22;2002;48.812;9.180;2023-04-24T06:23:06;17.90;1.00
3976;DHT22;2002;48.812;9.180;2023-04-24T06:25:31;17.90;1.00
3976;DHT22;2002;48.812;9.180;2023-04-24T06:27:57;17.80;1.00
3976;DHT22;2002;48.812;9.180;2023-04-24T06:30:23;17.80;1.00
3976;DHT22;2002;48.812;9.180;2023-04-24T06:32:48;17.80;1.00
3976;DHT22;2002;48.812;9.180;2023-04-24T06:35:14;17.80;1.00
3976;DHT22;2002;48.812;9.180;2023-04-24T06:37:41;17.70;1.00
3976;DHT22;2002;48.812;9.180;2023-04-24T06:40:07;17.70;1.00
3976;DHT22;2002;48.812;9.180;2023-04-24T06:42:33;17.70;1.00
3976;DHT22;2002;48.812;9.180;2023-04-24T06:45:00;17.70;1.00
3976;DHT22;2002;48.812;9.180;2023-04-24T06:47:26;17.70;1.00
3976;DHT22;2002;48.812;9.180;2023-04-24T06:49:51;17.70;1.00
3976;DHT22;2002;48.812;9.180;2023-04-24T06:52:18;17.70;1.00
3976;DHT22;2002;48.812;9.180;2023-04-24T06:54:44;17.70;1.00
3976;DHT22;2002;48.812;9.180;2023-04-24T06:57:09;17.70;1.00
3976;DHT22;2002;48.812;9.180;2023-04-24T06:59:36;17.70;1.00
3976;DHT22;2002;48.812;9.180;2023-04-24T07:02:02;17.70;1.00
3976;DHT22;2002;48.812;9.180;2023-04-24T07:04:28;17.60;1.00
3976;DHT22;2002;48.812;9.180;2023-04-24T07:06:53;17.70;1.00
3976;DHT22;2002;48.812;9.180;2023-04-24T07:09:22;17.70;1.00
3976;DHT22;2002;48.812;9.180;2023-04-24T07:11:49;17.70;1.00
3976;DHT22;2002;48.812;9.180;2023-04-24T07:14:15;17.70;1.00
3976;DHT22;2002;48.812;9.180;2023-04-24T07:16:41;17.70;1.00
3976;DHT22;2002;48.812;9.180;2023-04-24T07:19:07;17.70;1.00
3976;DHT22;2002;48.812;9.180;2023-04-24T07:21:32;17.60;1.00
3976;DHT22;2002;48.812;9.180;2023-04-24T07:23:58;17.60;1.00
3976;DHT22;2002;48.812;9.180;2023-04-24T07:26:24;17.60;1.00
3976;DHT22;2002;48.812;9.180;2023-04-24T07:28:50;17.60;1.00
3976;DHT22;2002;48.812;9.180;2023-04-24T07:31:15;17.60;1.00
3976;DHT22;2002;48.812;9.180;2023-04-24T07:33:41;17.60;1.00
3976;DHT22;2002;48.812;9.180;2023-04-24T07:36:07;17.60;1.00
3976;DHT22;2002;48.812;9.180;2023-04-24T07:38:32;17.60;1.00
3976;DHT22;2002;48.812;9.180;2023-04-24T07:40:58;17.60;1.00
3976;DHT22;2002;48.812;9.180;2023-04-24T07:43:23;17.60;1.00
3976;DHT22;2002;48.812;9.180;2023-04-24T07:45:52;17.60;1.00
3976;DHT22;2002;48.812;9.180;2023-04-24T07:48:18;17.60;1.00
3976;DHT22;2002;48.812;9.180;2023-04-24T07:50:44;17.60;1.00
3976;DHT22;2002;48.812;9.180;2023-04-24T07:53:10;17.60;1.00
3976;DHT22;2002;48.812;9.180;2023-04-24T07:55:36;17.60;1.00
3976;DHT22;2002;48.812;9.180;2023-04-24T07:58:01;17.60;1.00
3976;DHT22;2002;48.812;9.180;2023-04-24T08:00:27;17.60;1.00
3976;DHT22;2002;48.812;9.180;2023-04-24T08:02:53;17.60;1.00
3976;DHT22;2002;48.812;9.180;2023-04-24T08:05:18;17.60;1.00
3976;DHT22;2002;48.812;9.180;2023-04-24T08:07:45;17.60;1.00
3976;DHT22;2002;48.812;9.180;2023-04-24T08:10:14;17.50;1.00
3976;DHT22;2002;48.812;9.180;2023-04-24T08:12:40;17.60;1.00
3976;DHT22;2002;48.812;9.180;2023-04-24T08:15:06;17.60;1.00
3976;DHT22;2002;48.812;9.180;2023-04-24T08:17:33;17.50;1.00
3976;DHT22;2002;48.812;9.180;2023-04-24T08:19:58;17.50;1.00
3976;DHT22;2002;48.812;9.180;2023-04-24T08:22:27;17.50;1.00
3976;DHT22;2002;48.812;9.180;2023-04-24T08:24:53;17.50;1.00
3976;DHT22;2002;48.812;9.180;2023-04-24T08:27:19;17.50;1.00
3976;DHT22;2002;48.812;9.180;2023-04-24T08:29:45;17.60;1.00
3976;DHT22;2002;48.812;9.180;2023-04-24T08:32:10;17.60;1.00
3976;DHT22;2002;48.812;9.180;2023-04-24T08:34:36;17.50;1.00
3976;DHT22;2002;48.812;9.180;2023-04-24T08:37:02;17.50;1.00
3976;DHT22;2002;48.812;9.180;2023-04-24T08:39:28;17.50;1.00
3976;DHT22;2002;48.812;9.180;2023-04-24T08:41:55;17.60;1.00
3976;DHT22;2002;48.812;9.180;2023-04-24T08:44:21;17.50;1.00
3976;DHT22;2002;48.812;9.180;2023-04-24T08:46:48;17.60;1.00
3976;DHT22;2002;48.812;9.180;2023-04-24T08:49:14;17.60;1.00
3976;DHT22;2002;48.812;9.180;2023-04-24T08:51:44;17.60;1.00
3976;DHT22;2002;48.812;9.180;2023-04-24T08:54:11;17.70;1.00
3976;DHT22;2002;48.812;9.180;2023-04-24T08:56:38;17.80;1.00
3976;DHT22;2002;48.812;9.180;2023-04-24T08:59:06;17.80;1.00
3976;DHT22;2002;48.812;9.180;2023-04-24T09:01:33;17.80;1.00
3976;DHT22;2002;48.812;9.180;2023-04-24T09:04:02;17.80;1.00
3976;DHT22;2002;48.812;9.180;2023-04-24T09:06:29;17.80;1.00
3976;DHT22;2002;48.812;9.180;2023-04-24T09:08:56;17.70;1.00
3976;DHT22;2002;48.812;9.180;2023-04-24T09:11:24;17.70;1.00
3976;DHT22;2002;48.812;9.180;2023-04-24T09:13:50;17.70;1.00
3976;DHT22;2002;48.812;9.180;2023-04-24T09:16:16;17.60;1.00
3976;DHT22;2002;48.812;9.180;2023-04-24T09:18:42;17.60;1.00
3976;DHT22;2002;48.812;9.180;2023-04-24T09:21:08;17.60;1.00
3976;DHT22;2002;48.812;9.180;2023-04-24T09:23:34;17.60;1.00
3976;DHT22;2002;48.812;9.180;2023-04-24T09:26:02;17.70;1.00
3976;DHT22;2002;48.812;9.180;2023-04-24T09:28:32;17.70;1.00
3976;DHT22;2002;48.812;9.180;2023-04-24T09:33:35;17.60;1.00
3976;DHT22;2002;48.812;9.180;2023-04-24T09:36:01;17.60;1.00
3976;DHT22;2002;48.812;9.180;2023-04-24T09:38:37;17.60;1.00
3976;DHT22;2002;48.812;9.180;2023-04-24T09:41:06;17.60;1.00
3976;DHT22;2002;48.812;9.180;2023-04-24T09:43:33;17.60;1.00
3976;DHT22;2002;48.812;9.180;2023-04-24T09:46:03;17.60;1.00
3976;DHT22;2002;48.812;9.180;2023-04-24T09:48:30;17.60;1.00
3976;DHT22;2002;48.812;9.180;2023-04-24T09:50:57;17.60;1.00
3976;DHT22;2002;48.812;9.180;2023-04-24T09:53:25;17.60;1.00
3976;DHT22;2002;48.812;9.180;2023-04-24T09:55:51;17.60;1.00
3976;DHT22;2002;48.812;9.180;2023-04-24T09:58:24;17.60;1.00
3976;DHT22;2002;48.812;9.180;2023-04-24T10:00:53;17.60;1.00
3976;DHT22;2002;48.812;9.180;2023-04-24T10:03:19;17.60;1.00
3976;DHT22;2002;48.812;9.180;2023-04-24T10:05:46;17.60;1.00
3976;DHT22;2002;48.812;9.180;2023-04-24T10:08:13;17.60;1.00
3976;DHT22;2002;48.812;9.180;2023-04-24T10:10:41;17.60;1.00
3976;DHT22;2002;48.812;9.180;2023-04-24T10:13:07;17.60;1.00
3976;DHT22;2002;48.812;9.180;2023-04-24T10:15:34;17.60;1.00
3976;DHT22;2002;48.812;9.180;2023-04-24T10:18:00;17.60;1.00
3976;DHT22;2002;48.812;9.180;2023-04-24T10:20:29;17.60;1.00
3976;DHT22;2002;48.812;9.180;2023-04-24T10:22:58;17.60;1.00
3976;DHT22;2002;48.812;9.180;2023-04-24T10:25:27;17.60;1.00
3976;DHT22;2002;48.812;9.180;2023-04-24T10:27:53;17.60;1.00
3976;DHT22;2002;48.812;9.180;2023-04-24T10:30:22;17.60;1.00
3976;DHT22;2002;48.812;9.180;2023-04-24T10:32:48;17.60;1.00
3976;DHT22;2002;48.812;9.180;2023-04-24T10:35:15;17.60;1.00
3976;DHT22;2002;48.812;9.180;2023-04-24T10:37:45;17.50;1.00
3976;DHT22;2002;48.812;9.180;2023-04-24T10:40:16;17.60;1.00
3976;DHT22;2002;48.812;9.180;2023-04-24T10:42:42;17.60;1.00
3976;DHT22;2002;48.812;9.180;2023-04-24T10:45:16;17.50;1.00
3976;DHT22;2002;48.812;9.180;2023-04-24T10:47:47;17.40;1.00
3976;DHT22;2002;48.812;9.180;2023-04-24T10:50:15;17.40;1.00
3976;DHT22;2002;48.812;9.180;2023-04-24T10:52:48;17.50;1.00
3976;DHT22;2002;48.812;9.180;2023-04-24T10:55:29;17.50;1.00
3976;DHT22;2002;48.812;9.180;2023-04-24T10:58:03;17.40;1.00
3976;DHT22;2002;48.812;9.180;2023-04-24T11:00:29;17.40;1.00
3976;DHT22;2002;48.812;9.180;2023-04-24T11:02:54;17.40;1.00
3976;DHT22;2002;48.812;9.180;2023-04-24T11:05:36;17.50;1.00
3976;DHT22;2002;48.812;9.180;2023-04-24T11:08:22;17.40;1.00
3976;DHT22;2002;48.812;9.180;2023-04-24T11:11:07;17.50;1.00
3976;DHT22;2002;48.812;9.180;2023-04-24T11:19:06;17.50;1.00
3976;DHT22;2002;48.812;9.180;2023-04-24T11:21:39;17.50;1.00
3976;DHT22;2002;48.812;9.180;2023-04-24T11:24:25;17.50;1.00
3976;DHT22;2002;48.812;9.180;2023-04-24T11:26:55;17.70;1.00
3976;DHT22;2002;48.812;9.180;2023-04-24T11:29:22;17.80;1.00
3976;DHT22;2002;48.812;9.180;2023-04-24T11:31:47;17.90;1.00
3976;DHT22;2002;48.812;9.180;2023-04-24T11:34:15;18.00;1.00
3976;DHT22;2002;48.812;9.180;2023-04-24T11:36:47;17.90;1.00
3976;DHT22;2002;48.812;9.180;2023-04-24T11:39:14;17.90;1.00
3976;DHT22;2002;48.812;9.180;2023-04-24T11:41:40;17.90;1.00
3976;DHT22;2002;48.812;9.180;2023-04-24T11:44:07;17.90;1.00
3976;DHT22;2002;48.812;9.180;2023-04-24T11:46:33;17.80;1.00
3976;DHT22;2002;48.812;9.180;2023-04-24T11:48:59;17.80;1.00
3976;DHT22;2002;48.812;9.180;2023-04-24T11:51:26;17.70;1.00
3976;DHT22;2002;48.812;9.180;2023-04-24T11:53:54;17.80;1.00
3976;DHT22;2002;48.812;9.180;2023-04-24T11:56:23;17.70;1.00
3976;DHT22;2002;48.812;9.180;2023-04-24T11:58:50;17.70;1.00
3976;DHT22;2002;48.812;9.180;2023-04-24T12:01:17;17.70;1.00
3976;DHT22;2002;48.812;9.180;2023-04-24T12:03:47;17.60;1.00
3976;DHT22;2002;48.812;9.180;2023-04-24T12:06:13;17.60;1.00
3976;DHT22;2002;48.812;9.180;2023-04-24T12:08:39;17.60;1.00
3976;DHT22;2002;48.812;9.180;2023-04-24T12:11:06;17.70;1.00
3976;DHT22;2002;48.812;9.180;2023-04-24T12:13:35;17.70;1.00
3976;DHT22;2002;48.812;9.180;2023-04-24T12:16:04;17.70;1.00
3976;DHT22;2002;48.812;9.180;2023-04-24T12:18:31;17.70;1.00
3976;DHT22;2002;48.812;9.180;2023-04-24T12:21:21;17.60;1.00
3976;DHT22;2002;48.812;9.180;2023-04-24T12:23:46;17.70;1.00
3976;DHT22;2002;48.812;9.180;2023-04-24T12:26:19;17.70;1.00
3976;DHT22;2002;48.812;9.180;2023-04-24T12:28:47;17.70;1.00
3976;DHT22;2002;48.812;9.180;2023-04-24T12:31:14;17.70;1.00
3976;DHT22;2002;48.812;9.180;2023-04-24T12:33:40;17.70;1.00
3976;DHT22;2002;48.812;9.180;2023-04-24T12:36:06;17.60;1.00
3976;DHT22;2002;48.812;9.180;2023-04-24T12:38:32;17.60;1.00
3976;DHT22;2002;48.812;9.180;2023-04-24T12:41:10;17.60;1.00
3976;DHT22;2002;48.812;9.180;2023-04-24T12:43:36;17.60;1.00
3976;DHT22;2002;48.812;9.180;2023-04-24T12:46:02;17.60;1.00
3976;DHT22;2002;48.812;9.180;2023-04-24T12:48:28;17.60;1.00
3976;DHT22;2002;48.812;9.180;2023-04-24T12:50:54;17.60;1.00
3976;DHT22;2002;48.812;9.180;2023-04-24T12:53:20;17.60;1.00
3976;DHT22;2002;48.812;9.180;2023-04-24T12:55:46;17.60;1.00
3976;DHT22;2002;48.812;9.180;2023-04-24T12:58:21;17.50;1.00
3976;DHT22;2002;48.812;9.180;2023-04-24T13:00:46;17.50;1.00
3976;DHT22;2002;48.812;9.180;2023-04-24T13:03:12;17.50;1.00
3976;DHT22;2002;48.812;9.180;2023-04-24T13:05:38;17.50;1.00
3976;DHT22;2002;48.812;9.180;2023-04-24T13:08:04;17.50;1.00
3976;DHT22;2002;48.812;9.180;2023-04-24T13:10:30;17.50;1.00
3976;DHT22;2002;48.812;9.180;2023-04-24T13:12:55;17.50;1.00
3976;DHT22;2002;48.812;9.180;2023-04-24T13:15:21;17.50;1.00
3976;DHT22;2002;48.812;9.180;2023-04-24T13:17:47;17.50;1.00
3976;DHT22;2002;48.812;9.180;2023-04-24T13:20:13;17.50;1.00
3976;DHT22;2002;48.812;9.180;2023-04-24T13:22:38;17.50;1.00
3976;DHT22;2002;48.812;9.180;2023-04-24T13:25:04;17.40;1.00
3976;DHT22;2002;48.812;9.180;2023-04-24T13:27:31;17.40;1.00
3976;DHT22;2002;48.812;9.180;2023-04-24T13:29:57;17.40;1.00
3976;DHT22;2002;48.812;9.180;2023-04-24T13:32:22;17.40;1.00
3976;DHT22;2002;48.812;9.180;2023-04-24T13:34:48;17.40;1.00
3976;DHT22;2002;48.812;9.180;2023-04-24T13:37:13;17.40;1.00
3976;DHT22;2002;48.812;9.180;2023-04-24T13:39:39;17.40;1.00
3976;DHT22;2002;48.812;9.180;2023-04-24T13:42:06;17.40;1.00
3976;DHT22;2002;48.812;9.180;2023-04-24T13:44:32;17.40;1.00
3976;DHT22;2002;48.812;9.180;2023-04-24T13:46:58;17.40;1.00
3976;DHT22;2002;48.812;9.180;2023-04-24T13:49:24;17.40;1.00
3976;DHT22;2002;48.812;9.180;2023-04-24T13:51:54;17.50;1.00
3976;DHT22;2002;48.812;9.180;2023-04-24T13:54:20;17.40;1.00
3976;DHT22;2002;48.812;9.180;2023-04-24T13:56:46;17.40;1.00
3976;DHT22;2002;48.812;9.180;2023-04-24T13:59:12;17.40;1.00
3976;DHT22;2002;48.812;9.180;2023-04-24T14:01:38;17.40;1.00
3976;DHT22;2002;48.812;9.180;2023-04-24T14:04:04;17.40;1.00
3976;DHT22;2002;48.812;9.180;2023-04-24T14:06:30;17.50;1.00
3976;DHT22;2002;48.812;9.180;2023-04-24T14:08:56;17.50;1.00
3976;DHT22;2002;48.812;9.180;2023-04-24T14:11:22;17.70;1.00
3976;DHT22;2002;48.812;9.180;2023-04-24T14:13:47;17.80;1.00
3976;DHT22;2002;48.812;9.180;2023-04-24T14:16:13;17.90;1.00
3976;DHT22;2002;48.812;9.180;2023-04-24T14:18:39;18.00;1.00
3976;DHT22;2002;48.812;9.180;2023-04-24T14:21:05;17.90;1.00
3976;DHT22;2002;48.812;9.180;2023-04-24T14:23:31;17.90;1.00
3976;DHT22;2002;48.812;9.180;2023-04-24T14:25:57;17.90;1.00
3976;DHT22;2002;48.812;9.180;2023-04-24T14:28:23;17.90;1.00
3976;DHT22;2002;48.812;9.180;2023-04-24T14:30:49;17.80;1.00
3976;DHT22;2002;48.812;9.180;2023-04-24T14:33:15;17.80;1.00
3976;DHT22;2002;48.812;9.180;2023-04-24T14:35:41;17.70;1.00
3976;DHT22;2002;48.812;9.180;2023-04-24T14:38:08;17.70;1.00
3976;DHT22;2002;48.812;9.180;2023-04-24T14:40:34;17.70;1.00
3976;DHT22;2002;48.812;9.180;2023-04-24T14:43:00;17.70;1.00
3976;DHT22;2002;48.812;9.180;2023-04-24T14:45:26;17.60;1.00
3976;DHT22;2002;48.812;9.180;2023-04-24T14:47:52;17.60;1.00
3976;DHT22;2002;48.812;9.180;2023-04-24T14:50:18;17.60;1.00
3976;DHT22;2002;48.812;9.180;2023-04-24T14:52:44;17.60;1.00
3976;DHT22;2002;48.812;9.180;2023-04-24T14:55:09;17.60;1.00
3976;DHT22;2002;48.812;9.180;2023-04-24T14:57:35;17.60;1.00
3976;DHT22;2002;48.812;9.180;2023-04-24T15:00:03;17.60;1.00
3976;DHT22;2002;48.812;9.180;2023-04-24T15:02:30;17.50;1.00
3976;DHT22;2002;48.812;9.180;2023-04-24T15:04:56;17.60;1.00
3976;DHT22;2002;48.812;9.180;2023-04-24T15:07:21;17.60;1.00
3976;DHT22;2002;48.812;9.180;2023-04-24T15:09:47;17.60;1.00
3976;DHT22;2002;48.812;9.180;2023-04-24T15:12:12;17.60;1.00
3976;DHT22;2002;48.812;9.180;2023-04-24T15:14:38;17.60;1.00
3976;DHT22;2002;48.812;9.180;2023-04-24T15:17:04;17.60;1.00
3976;DHT22;2002;48.812;9.180;2023-04-24T15:19:29;17.60;1.00
3976;DHT22;2002;48.812;9.180;2023-04-24T15:21:55;17.60;1.00
3976;DHT22;2002;48.812;9.180;2023-04-24T15:24:20;17.60;1.00
3976;DHT22;2002;48.812;9.180;2023-04-24T15:26:46;17.60;1.00
3976;DHT22;2002;48.812;9.180;2023-04-24T15:29:11;17.60;1.00
3976;DHT22;2002;48.812;9.180;2023-04-24T15:31:37;17.50;1.00
3976;DHT22;2002;48.812;9.180;2023-04-24T15:34:05;17.60;1.00
3976;DHT22;2002;48.812;9.180;2023-04-24T15:36:31;17.60;1.00
3976;DHT22;2002;48.812;9.180;2023-04-24T15:38:57;17.50;1.00
3976;DHT22;2002;48.812;9.180;2023-04-24T15:41:23;17.50;1.00
3976;DHT22;2002;48.812;9.180;2023-04-24T15:43:48;17.60;1.00
3976;DHT22;2002;48.812;9.180;2023-04-24T15:46:14;17.50;1.00
3976;DHT22;2002;48.812;9.180;2023-04-24T15:48:41;17.50;1.00
3976;DHT22;2002;48.812;9.180;2023-04-24T15:51:07;17.50;1.00
3976;DHT22;2002;48.812;9.180;2023-04-24T15:53:33;17.50;1.00
3976;DHT22;2002;48.812;9.180;2023-04-24T15:55:59;17.50;1.00
3976;DHT22;2002;48.812;9.180;2023-04-24T15:58:24;17.50;1.00
3976;DHT22;2002;48.812;9.180;2023-04-24T16:00:50;17.40;1.00
3976;DHT22;2002;48.812;9.180;2023-04-24T16:03:15;17.40;1.00
3976;DHT22;2002;48.812;9.180;2023-04-24T16:05:41;17.40;1.00
3976;DHT22;2002;48.812;9.180;2023-04-24T16:08:07;17.40;1.00
3976;DHT22;2002;48.812;9.180;2023-04-24T16:10:32;17.40;1.00
3976;DHT22;2002;48.812;9.180;2023-04-24T16:12:58;17.40;1.00
3976;DHT22;2002;48.812;9.180;2023-04-24T16:15:28;17.40;1.00
3976;DHT22;2002;48.812;9.180;2023-04-24T16:17:54;17.40;1.00
3976;DHT22;2002;48.812;9.180;2023-04-24T16:20:19;17.50;1.00